Time;durP1;ratioP1;P1;durP2;ratioP2;P2;SDS_P1;SDS_P2;PMS_P1;PMS_P2;Temp;Humidity;BMP_temperature;BMP_pressure;BME280_temperature;BME280_humidity;BME280_pressure;Samples;Min_cycle;Max_cycle;Signal;HPM_P1;HPM_P2
2022/07/16 00:02:31;;;;;;;5.25;1.77;;;;;;;16.77;52.70;99297.59;1672492;84;21099;-66
2022/07/16 00:04:58;;;;;;;5.53;1.85;;;;;;;16.74;52.96;99298.56;1643077;86;21090;-66
2022/07/16 00:07:24;;;;;;;3.17;1.35;;;;;;;16.71;53.07;99300.33;1672081;84;21277;-68
2022/07/16 00:09:51;;;;;;;2.90;1.30;;;;;;;16.66;53.20;99301.77;1649248;86;21124;-68
2022/07/16 00:12:18;;;;;;;3.00;1.47;;;;;;;16.61;53.20;99302.94;1643120;86;20945;-67
2022/07/16 00:14:45;;;;;;;2.67;1.50;;;;;;;16.59;53.27;99301.50;1645061;86;20954;-68
2022/07/16 00:17:11;;;;;;;3.05;1.50;;;;;;;16.53;53.78;99299.14;1639298;87;21579;-68
2022/07/16 00:19:39;;;;;;;2.83;1.50;;;;;;;16.46;53.70;99298.32;1643836;87;21885;-66
2022/07/16 00:22:05;;;;;;;3.20;1.85;;;;;;;16.39;53.94;99304.23;1643957;86;20975;-67
2022/07/16 00:24:33;;;;;;;3.70;2.02;;;;;;;16.36;54.14;99310.54;1659702;86;21052;-68
2022/07/16 00:27:00;;;;;;;4.50;2.58;;;;;;;16.30;54.04;99309.52;1659249;85;21008;-67
2022/07/16 00:29:27;;;;;;;3.33;2.10;;;;;;;16.25;54.01;99306.64;1659818;86;21008;-68
2022/07/16 00:31:54;;;;;;;4.30;2.85;;;;;;;16.24;54.20;99305.53;1659727;86;21166;-67
2022/07/16 00:34:21;;;;;;;5.00;3.60;;;;;;;16.19;54.23;99312.84;1659698;86;21036;-68
2022/07/16 00:36:48;;;;;;;5.42;2.60;;;;;;;16.16;54.22;99312.46;1659234;85;20957;-67
2022/07/16 00:39:15;;;;;;;4.20;2.27;;;;;;;16.13;54.50;99311.53;1659701;86;20971;-68
2022/07/16 00:41:43;;;;;;;3.77;3.10;;;;;;;16.13;54.49;99313.70;1664518;86;21021;-68
2022/07/16 00:44:12;;;;;;;3.83;2.15;;;;;;;16.16;54.72;99310.61;1659918;84;21226;-68
2022/07/16 00:46:39;;;;;;;3.35;2.15;;;;;;;16.18;55.20;99309.05;1655184;85;21546;-68
2022/07/16 00:49:06;;;;;;;6.17;2.15;;;;;;;16.15;55.50;99314.31;1664335;86;21571;-68
2022/07/16 00:51:35;;;;;;;6.30;2.30;;;;;;;16.09;55.51;99311.11;1658109;85;21012;-66
2022/07/16 00:54:02;;;;;;;2.20;1.85;;;;;;;16.03;55.63;99312.77;1659733;85;21032;-68
2022/07/16 00:56:29;;;;;;;5.20;1.98;;;;;;;15.99;55.85;99308.05;1632342;87;21242;-67
2022/07/16 00:58:56;;;;;;;3.58;2.05;;;;;;;15.96;56.29;99311.14;1664098;85;21016;-67
2022/07/16 01:01:23;;;;;;;3.47;1.75;;;;;;;15.88;56.64;99306.81;1660396;84;21144;-66
2022/07/16 01:03:50;;;;;;;6.28;1.80;;;;;;;15.81;56.89;99303.33;1663416;84;21036;-68
2022/07/16 01:06:16;;;;;;;3.10;1.57;;;;;;;15.74;57.31;99309.22;1662803;84;20920;-67
2022/07/16 01:08:47;;;;;;;2.92;1.90;;;;;;;15.68;57.58;99307.36;1663383;84;21199;-66
2022/07/16 01:11:17;;;;;;;3.02;1.90;;;;;;;15.65;57.70;99309.61;1659599;84;21613;-66
2022/07/16 01:13:45;;;;;;;2.45;1.50;;;;;;;15.60;57.91;99302.20;1626599;87;21108;-67
2022/07/16 01:16:12;;;;;;;2.70;1.55;;;;;;;15.56;57.91;99301.48;1602377;88;21061;-68
2022/07/16 01:18:39;;;;;;;3.33;1.50;;;;;;;15.52;57.56;99304.25;1614306;88;21032;-68
2022/07/16 01:21:08;;;;;;;2.40;1.32;;;;;;;15.50;57.40;99304.98;1602302;88;21555;-67
2022/07/16 01:23:34;;;;;;;2.12;1.17;;;;;;;15.44;57.36;99306.59;1602768;88;21542;-66
2022/07/16 01:26:01;;;;;;;4.10;1.57;;;;;;;15.41;57.33;99307.83;1628358;86;21103;-68
2022/07/16 01:28:28;;;;;;;2.67;1.27;;;;;;;15.40;58.17;99310.73;1632657;86;21079;-67
2022/07/16 01:30:55;;;;;;;2.92;1.40;;;;;;;15.36;57.91;99310.30;1633063;86;21608;-66
2022/07/16 01:33:31;;;;;;;4.67;1.70;;;;;;;15.34;58.20;99310.20;1628242;86;21279;-67
2022/07/16 01:36:05;;;;;;;2.27;1.20;;;;;;;15.31;59.07;99310.59;1628546;86;21041;-68
2022/07/16 01:38:31;;;;;;;4.22;1.65;;;;;;;15.26;59.51;99309.05;1650148;86;21049;-67
2022/07/16 01:40:58;;;;;;;3.10;1.12;;;;;;;15.27;59.67;99307.52;1632569;86;21606;-66
2022/07/16 01:43:28;;;;;;;2.02;0.90;;;;;;;15.27;59.80;99304.02;1638663;86;21683;-67
2022/07/16 01:45:54;;;;;;;3.25;0.93;;;;;;;15.27;60.03;99304.02;1629671;86;21160;-66
2022/07/16 01:48:21;;;;;;;2.83;1.30;;;;;;;15.26;60.21;99305.03;1609105;87;21058;-67
2022/07/16 01:50:48;;;;;;;2.10;1.05;;;;;;;15.24;60.47;99303.91;1608114;87;20932;-68
2022/07/16 01:53:14;;;;;;;2.52;1.17;;;;;;;15.25;60.30;99306.08;1612900;87;21023;-68
2022/07/16 01:55:41;;;;;;;2.05;1.00;;;;;;;15.23;60.23;99300.91;1609190;87;21002;-67
2022/07/16 01:58:10;;;;;;;1.87;1.47;;;;;;;15.23;59.82;99305.44;1609163;87;21104;-66
2022/07/16 02:00:40;;;;;;;3.70;1.20;;;;;;;15.20;59.51;99312.02;1611229;87;20985;-67
2022/07/16 02:03:06;;;;;;;3.70;1.22;;;;;;;15.20;59.74;99309.89;1633241;86;20955;-68
2022/07/16 02:05:33;;;;;;;3.62;1.70;;;;;;;15.22;59.35;99309.16;1609591;87;21130;-67
2022/07/16 02:08:00;;;;;;;4.37;1.17;;;;;;;15.25;59.02;99306.87;1628593;87;21010;-67
2022/07/16 02:10:26;;;;;;;3.47;1.98;;;;;;;15.30;59.40;99308.97;1611736;87;21176;-66
2022/07/16 02:12:53;;;;;;;3.02;2.00;;;;;;;15.32;59.01;99310.92;1635662;86;21025;-67
2022/07/16 02:15:19;;;;;;;2.42;1.57;;;;;;;15.38;58.45;99305.55;1652363;85;21013;-68
2022/07/16 02:17:47;;;;;;;4.80;1.75;;;;;;;15.42;58.16;99304.12;1694292;84;20968;-66
2022/07/16 02:20:13;;;;;;;2.22;1.20;;;;;;;15.43;58.77;99307.64;1696378;84;21014;-66
2022/07/16 02:22:40;;;;;;;4.50;1.40;;;;;;;15.42;58.37;99305.98;1686865;84;21162;-66
2022/07/16 02:25:08;;;;;;;1.87;1.42;;;;;;;15.39;58.42;99305.05;1692975;84;20868;-68
2022/07/16 02:27:35;;;;;;;2.00;1.17;;;;;;;15.34;58.55;99303.49;1689287;83;21018;-66
2022/07/16 02:30:04;;;;;;;2.58;1.20;;;;;;;15.31;58.26;99310.09;1698279;84;20999;-66
2022/07/16 02:32:31;;;;;;;3.60;1.05;;;;;;;15.33;57.92;99311.21;1689019;83;21017;-66
2022/07/16 02:34:57;;;;;;;2.72;1.50;;;;;;;15.35;57.80;99303.81;1694078;83;21160;-68
2022/07/16 02:37:24;;;;;;;4.45;1.30;;;;;;;15.38;58.09;99303.41;1698801;84;20931;-66
2022/07/16 02:39:50;;;;;;;3.72;1.32;;;;;;;15.41;58.34;99302.97;1693475;84;20998;-68
2022/07/16 02:42:17;;;;;;;1.80;1.30;;;;;;;15.42;58.79;99301.95;1696303;84;20984;-67
2022/07/16 02:44:44;;;;;;;2.83;1.40;;;;;;;15.43;59.06;99302.28;1687310;83;20950;-67
2022/07/16 02:47:10;;;;;;;3.52;1.27;;;;;;;15.44;59.50;99302.06;1697259;84;21854;-66
2022/07/16 02:49:37;;;;;;;2.50;1.25;;;;;;;15.41;59.75;99301.64;1694750;84;21556;-67
2022/07/16 02:52:05;;;;;;;1.92;1.17;;;;;;;15.38;60.01;99306.09;1693235;84;21512;-68
2022/07/16 02:54:31;;;;;;;1.80;1.40;;;;;;;15.35;60.43;99303.31;1687840;84;21073;-68
2022/07/16 02:56:58;;;;;;;4.12;1.10;;;;;;;15.33;60.63;99303.17;1699067;84;21522;-66
2022/07/16 02:59:24;;;;;;;3.20;1.30;;;;;;;15.34;60.84;99304.33;1699145;84;21331;-68
2022/07/16 03:01:51;;;;;;;2.58;1.32;;;;;;;15.36;60.93;99302.27;1696292;84;20994;-67
2022/07/16 03:04:17;;;;;;;4.45;1.30;;;;;;;15.38;61.03;99302.07;1697553;84;21446;-68
2022/07/16 03:06:44;;;;;;;3.77;1.40;;;;;;;15.40;61.54;99300.00;1698125;84;21466;-68
2022/07/16 03:09:11;;;;;;;3.80;1.22;;;;;;;15.43;62.07;99305.76;1699318;84;21058;-67
2022/07/16 03:11:37;;;;;;;3.35;1.70;;;;;;;15.51;62.56;99302.63;1699788;84;21259;-66
2022/07/16 03:14:04;;;;;;;4.00;1.40;;;;;;;15.59;62.83;99307.23;1688947;84;20982;-68
2022/07/16 03:16:31;;;;;;;8.48;1.42;;;;;;;15.69;62.96;99309.02;1684028;84;20964;-68
2022/07/16 03:18:57;;;;;;;2.30;1.12;;;;;;;15.81;62.24;99315.39;1684220;84;21141;-67
2022/07/16 03:21:24;;;;;;;3.80;1.05;;;;;;;15.93;61.80;99312.89;1684181;85;20972;-67
2022/07/16 03:23:50;;;;;;;2.22;1.30;;;;;;;16.08;61.04;99312.68;1681565;84;21229;-66
2022/07/16 03:26:17;;;;;;;1.90;1.25;;;;;;;16.27;60.22;99314.50;1683441;84;20914;-67
2022/07/16 03:28:44;;;;;;;2.98;1.30;;;;;;;16.45;59.64;99313.31;1683904;84;21059;-67
2022/07/16 03:31:12;;;;;;;3.90;1.32;;;;;;;16.66;59.44;99313.03;1684161;85;21036;-67
2022/07/16 03:33:38;;;;;;;4.67;1.50;;;;;;;16.91;59.04;99308.59;1681857;84;20972;-68
2022/07/16 03:36:06;;;;;;;3.05;1.67;;;;;;;17.24;58.36;99312.41;1683834;84;21145;-67
2022/07/16 03:41:17;;;;;;;4.28;1.80;;;;;;;17.97;55.60;99308.13;1684249;85;20897;-67
2022/07/16 03:43:44;;;;;;;2.80;1.42;;;;;;;18.39;54.26;99303.75;1682517;84;21071;-68
2022/07/16 03:46:13;;;;;;;3.98;1.27;;;;;;;18.79;52.76;99305.48;1684246;85;21003;-68
2022/07/16 03:49:01;;;;;;;1.62;1.40;;;;;;;19.20;51.73;99301.48;1684207;85;21186;-67
2022/07/16 03:51:28;;;;;;;2.25;1.35;;;;;;;19.72;50.51;99302.55;1624552;86;21323;-65
2022/07/16 03:53:55;;;;;;;2.77;1.70;;;;;;;20.33;48.99;99296.70;1622483;87;20927;-66
2022/07/16 03:56:21;;;;;;;1.95;1.25;;;;;;;20.85;47.19;99296.16;1651108;85;21032;-68
2022/07/16 03:58:48;;;;;;;2.58;1.40;;;;;;;21.34;45.63;99294.13;1619595;87;20980;-67
2022/07/16 04:01:16;;;;;;;1.62;1.05;;;;;;;21.77;44.66;99300.25;1657506;85;21552;-66
2022/07/16 04:03:43;;;;;;;2.47;1.47;;;;;;;22.30;43.38;99295.66;1631147;87;21572;-69
2022/07/16 04:06:10;;;;;;;7.50;4.55;;;;;;;22.82;42.42;99296.07;1621829;87;22419;-68
2022/07/16 04:08:37;;;;;;;3.27;2.72;;;;;;;23.31;41.15;99301.75;1649646;85;21164;-67
2022/07/16 04:11:03;;;;;;;2.77;2.42;;;;;;;23.82;40.39;99301.70;1623056;87;21010;-68
2022/07/16 04:13:32;;;;;;;3.67;2.72;;;;;;;24.37;38.96;99301.27;1623285;87;21529;-67
2022/07/16 04:15:58;;;;;;;5.15;4.65;;;;;;;24.86;37.78;99297.70;1623663;87;20917;-67
2022/07/16 04:18:25;;;;;;;3.85;2.62;;;;;;;25.45;36.89;99297.26;1652185;84;20941;-69
2022/07/16 04:20:51;;;;;;;4.80;2.50;;;;;;;26.03;36.15;99296.73;1623649;87;21052;-68
2022/07/16 04:23:18;;;;;;;3.98;1.90;;;;;;;26.62;34.95;99289.26;1652433;85;20937;-67
2022/07/16 04:25:45;;;;;;;2.95;1.75;;;;;;;27.16;33.75;99288.73;1652948;85;21156;-67
2022/07/16 04:28:11;;;;;;;3.90;3.45;;;;;;;27.67;32.52;99284.27;1620233;87;21071;-67
2022/07/16 04:30:39;;;;;;;4.40;3.45;;;;;;;28.18;31.63;99284.66;1620633;87;21029;-68
2022/07/16 04:33:06;;;;;;;4.78;2.20;;;;;;;28.57;30.61;99286.13;1649219;85;20961;-67
2022/07/16 04:35:33;;;;;;;3.42;2.00;;;;;;;28.87;29.92;99282.20;1619983;87;21087;-68
2022/07/16 04:38:00;;;;;;;2.52;1.62;;;;;;;29.18;29.32;99279.84;1656530;85;21234;-68
2022/07/16 04:40:27;;;;;;;1.35;1.20;;;;;;;29.52;28.79;99277.70;1622158;87;20941;-68
2022/07/16 04:42:53;;;;;;;2.65;1.30;;;;;;;29.94;28.22;99276.75;1655216;85;20979;-69
2022/07/16 04:45:20;;;;;;;2.80;1.35;;;;;;;30.21;27.55;99275.43;1623908;87;20901;-68
2022/07/16 04:47:47;;;;;;;2.65;1.20;;;;;;;30.33;27.26;99277.66;1610104;87;20997;-67
2022/07/16 04:50:14;;;;;;;7.28;1.65;;;;;;;30.53;27.01;99278.68;1624427;87;21175;-67
2022/07/16 04:52:41;;;;;;;5.90;1.40;;;;;;;30.87;26.93;99270.78;1661163;85;21488;-67
2022/07/16 04:55:09;;;;;;;3.58;1.32;;;;;;;31.22;26.13;99269.22;1662358;85;21424;-66
2022/07/16 04:57:35;;;;;;;2.25;1.30;;;;;;;31.45;26.17;99270.03;1662852;85;20954;-68
2022/07/16 05:00:04;;;;;;;1.98;1.42;;;;;;;31.96;25.43;99267.67;1658934;85;21058;-68
2022/07/16 05:05:19;;;;;;;3.17;1.30;;;;;;;32.91;24.16;99265.55;1660664;85;21074;-67
2022/07/16 05:07:44;;;;;;;2.98;1.95;;;;;;;33.37;23.60;99271.05;1662704;85;21013;-67
2022/07/16 05:10:12;;;;;;;4.37;1.92;;;;;;;33.64;23.33;99273.48;1662860;85;21635;-68
2022/07/16 05:12:38;;;;;;;3.47;1.52;;;;;;;34.07;22.97;99274.80;1662711;85;21040;-68
2022/07/16 05:15:06;;;;;;;3.12;1.35;;;;;;;34.40;22.45;99275.81;1662239;85;21100;-68
2022/07/16 05:17:32;;;;;;;9.83;4.25;;;;;;;34.76;21.81;99273.94;1662822;85;20935;-67
2022/07/16 05:19:59;;;;;;;4.75;1.57;;;;;;;35.01;21.64;99263.88;1662947;85;21436;-68
2022/07/16 05:22:25;;;;;;;2.50;1.32;;;;;;;35.20;21.12;99267.80;1660854;84;21003;-67
2022/07/16 05:24:52;;;;;;;3.02;1.57;;;;;;;35.20;21.07;99267.80;1660958;85;21307;-67
2022/07/16 05:27:18;;;;;;;3.58;1.35;;;;;;;35.32;21.43;99273.98;1661532;85;21676;-69
2022/07/16 05:29:45;;;;;;;2.17;1.00;;;;;;;35.76;21.02;99267.74;1662903;84;20962;-69
2022/07/16 05:32:12;;;;;;;2.33;1.40;;;;;;;36.22;20.30;99274.90;1663415;85;20965;-67
2022/07/16 05:34:39;;;;;;;2.98;0.90;;;;;;;36.56;19.91;99270.09;1636634;87;21069;-66
2022/07/16 05:37:06;;;;;;;2.90;1.00;;;;;;;36.86;19.32;99272.86;1625267;87;21080;-70
2022/07/16 05:39:33;;;;;;;2.42;1.35;;;;;;;36.96;19.15;99273.80;1630388;87;21103;-67
2022/07/16 05:41:59;;;;;;;1.70;1.10;;;;;;;37.00;18.71;99271.36;1659492;85;20945;-67
2022/07/16 05:44:27;;;;;;;2.00;1.15;;;;;;;37.17;18.59;99273.06;1662901;85;20975;-68
2022/07/16 05:46:53;;;;;;;2.77;1.00;;;;;;;37.39;18.69;99268.95;1660945;85;21010;-68
2022/07/16 05:49:20;;;;;;;1.20;1.00;;;;;;;37.66;18.26;99264.81;1660816;84;20914;-68
2022/07/16 05:51:47;;;;;;;2.72;1.00;;;;;;;37.84;17.73;99260.31;1642502;85;21201;-71
2022/07/16 05:54:13;;;;;;;1.98;0.95;;;;;;;37.88;17.65;99259.88;1621642;87;21022;-69
2022/07/16 05:56:40;;;;;;;2.10;1.12;;;;;;;38.01;17.64;99257.25;1642476;87;21586;-69
2022/07/16 05:59:06;;;;;;;2.40;1.10;;;;;;;38.40;17.67;99263.83;1648298;87;21058;-71
2022/07/16 06:01:33;;;;;;;4.80;1.07;;;;;;;38.81;17.23;99263.26;1671289;84;21044;-68
2022/07/16 06:04:01;;;;;;;1.80;1.15;;;;;;;39.02;16.80;99267.91;1670149;84;21019;-69
2022/07/16 06:06:28;;;;;;;1.77;1.27;;;;;;;39.25;16.76;99267.45;1674646;84;21162;-69
2022/07/16 06:08:56;;;;;;;4.10;1.40;;;;;;;39.43;16.36;99261.67;1670103;84;21448;-69
2022/07/16 06:11:23;;;;;;;2.85;1.37;;;;;;;39.47;16.25;99264.54;1669486;84;21124;-69
2022/07/16 06:13:50;;;;;;;1.35;1.20;;;;;;;39.55;16.01;99272.44;1669183;84;21014;-71
2022/07/16 06:16:16;;;;;;;1.40;1.27;;;;;;;39.59;15.96;99269.94;1669614;84;21217;-66
2022/07/16 06:18:43;;;;;;;2.77;1.00;;;;;;;39.79;15.81;99272.94;1669193;84;20961;-68
2022/07/16 06:21:09;;;;;;;1.67;1.35;;;;;;;40.11;15.56;99268.00;1670129;84;21044;-69
2022/07/16 06:23:36;;;;;;;4.37;1.30;;;;;;;40.28;15.28;99268.91;1669834;84;21068;-70
2022/07/16 06:26:03;;;;;;;2.65;1.85;;;;;;;40.31;15.17;99268.14;1672798;84;21543;-72
2022/07/16 06:28:31;;;;;;;1.87;1.10;;;;;;;40.28;15.18;99267.52;1674993;84;21160;-69
2022/07/16 06:30:57;;;;;;;2.85;1.50;;;;;;;40.24;15.33;99267.22;1669660;84;21070;-69
2022/07/16 06:33:26;;;;;;;2.17;1.07;;;;;;;40.28;15.14;99261.13;1670263;84;21547;-68
2022/07/16 06:35:52;;;;;;;1.20;1.00;;;;;;;40.50;15.12;99269.50;1670165;84;21098;-70
2022/07/16 06:38:20;;;;;;;3.35;1.07;;;;;;;41.03;14.94;99267.54;1668859;84;20962;-71
2022/07/16 06:40:46;;;;;;;2.83;1.02;;;;;;;41.50;14.29;99266.98;1670105;84;21275;-71
2022/07/16 06:43:13;;;;;;;5.03;1.27;;;;;;;41.71;14.01;99259.44;1670064;84;20977;-71
2022/07/16 06:45:43;;;;;;;1.82;1.07;;;;;;;41.66;14.12;99263.97;1670286;84;21513;-71
2022/07/16 06:48:10;;;;;;;4.33;1.45;;;;;;;41.66;13.97;99261.18;1684006;84;21029;-69
2022/07/16 06:50:37;;;;;;;1.17;0.82;;;;;;;41.68;13.94;99260.20;1660670;84;20988;-69
2022/07/16 06:53:04;;;;;;;2.05;1.00;;;;;;;41.58;13.73;99263.68;1656221;85;21252;-69
2022/07/16 06:55:31;;;;;;;1.47;1.05;;;;;;;41.51;13.91;99258.02;1676122;85;20908;-72
2022/07/16 06:57:59;;;;;;;1.65;0.93;;;;;;;41.71;13.60;99256.65;1668916;85;20956;-69
2022/07/16 07:00:25;;;;;;;1.15;0.75;;;;;;;41.74;13.66;99260.88;1656274;85;21006;-68
2022/07/16 07:02:52;;;;;;;2.67;1.07;;;;;;;42.04;13.64;99249.62;1649288;85;21058;-69
2022/07/16 07:05:19;;;;;;;2.00;0.90;;;;;;;42.25;13.08;99254.05;1669909;85;21811;-71
2022/07/16 07:07:45;;;;;;;1.80;0.93;;;;;;;42.18;13.01;99253.99;1653866;85;21022;-73
2022/07/16 07:10:11;;;;;;;3.60;0.78;;;;;;;42.17;13.08;99245.98;1654550;85;20964;-71
2022/07/16 07:12:39;;;;;;;3.40;0.80;;;;;;;42.19;13.03;99257.56;1653223;85;21447;-74
2022/07/16 07:15:07;;;;;;;2.05;0.90;;;;;;;42.11;13.02;99252.48;1651561;85;21577;-73
2022/07/16 07:17:34;;;;;;;1.98;0.93;;;;;;;42.19;12.79;99255.58;1657912;85;21184;-72
2022/07/16 07:20:00;;;;;;;2.12;0.93;;;;;;;42.37;12.83;99249.55;1651687;85;21072;-73
2022/07/16 07:22:28;;;;;;;1.27;0.95;;;;;;;42.84;12.63;99249.33;1652138;85;21554;-72
2022/07/16 07:24:55;;;;;;;2.05;0.80;;;;;;;43.21;12.25;99246.33;1649637;85;20956;-69
2022/07/16 07:27:22;;;;;;;0.82;0.53;;;;;;;43.48;12.01;99248.48;1651446;85;21047;-72
2022/07/16 07:29:49;;;;;;;3.00;1.50;;;;;;;43.72;11.58;99251.78;1655703;85;22281;-72
2022/07/16 07:32:16;;;;;;;5.03;1.12;;;;;;;42.70;11.97;99250.03;1652724;85;21572;-75
2022/07/16 07:34:42;;;;;;;3.05;1.05;;;;;;;41.18;12.83;99253.99;1654264;85;21591;-73
2022/07/16 07:37:09;;;;;;;5.40;1.70;;;;;;;39.62;13.85;99262.28;1651941;85;20900;-73
2022/07/16 07:39:36;;;;;;;3.72;2.02;;;;;;;37.91;14.72;99253.63;1648231;85;20998;-72
2022/07/16 07:42:03;;;;;;;3.27;1.72;;;;;;;36.27;16.12;99256.67;1650906;85;21181;-73
2022/07/16 07:44:29;;;;;;;2.30;1.30;;;;;;;35.66;16.85;99261.83;1651893;85;20880;-73
2022/07/16 07:46:56;;;;;;;2.58;1.12;;;;;;;36.29;16.64;99259.93;1652318;85;21581;-74
2022/07/16 07:49:24;;;;;;;2.58;0.98;;;;;;;35.88;16.64;99264.19;1650088;85;20956;-73
2022/07/16 07:51:51;;;;;;;2.27;0.90;;;;;;;34.78;17.54;99268.91;1661709;84;20934;-71
2022/07/16 07:54:19;;;;;;;2.58;1.60;;;;;;;33.73;18.46;99264.64;1667384;84;21248;-72
2022/07/16 07:56:48;;;;;;;1.25;0.90;;;;;;;32.83;19.09;99266.91;1670181;84;20967;-72
2022/07/16 07:59:15;;;;;;;6.58;0.95;;;;;;;33.30;19.24;99265.20;1669998;84;21400;-72
2022/07/16 08:01:42;;;;;;;3.55;1.12;;;;;;;34.92;17.75;99259.78;1668029;84;21124;-74
2022/07/16 08:04:09;;;;;;;3.55;2.37;;;;;;;36.49;16.12;99253.50;1667910;84;21474;-73
2022/07/16 08:06:37;;;;;;;0.82;0.70;;;;;;;37.75;15.03;99240.26;1668466;84;21243;-73
2022/07/16 08:09:05;;;;;;;2.47;0.80;;;;;;;38.47;14.32;99250.11;1672485;84;21597;-72
2022/07/16 08:11:31;;;;;;;2.30;0.72;;;;;;;39.32;13.87;99250.09;1667749;84;21599;-72
2022/07/16 08:13:58;;;;;;;1.67;0.72;;;;;;;40.01;13.30;99244.33;1667729;84;20915;-71
2022/07/16 08:16:25;;;;;;;1.57;1.47;;;;;;;39.42;13.24;99244.75;1667795;84;21049;-74
2022/07/16 08:18:52;;;;;;;3.72;1.35;;;;;;;38.37;13.76;99244.52;1667616;84;21072;-72
2022/07/16 08:21:19;;;;;;;1.87;0.82;;;;;;;36.96;14.60;99243.30;1667626;84;20899;-74
2022/07/16 08:26:31;;;;;;;2.22;0.85;;;;;;;34.28;16.88;99252.80;1668002;84;20973;-71
2022/07/16 08:28:57;;;;;;;3.37;0.93;;;;;;;33.44;17.95;99250.69;1667646;84;21077;-72
2022/07/16 08:31:23;;;;;;;2.83;0.70;;;;;;;34.19;18.18;99250.07;1667686;84;21107;-74
2022/07/16 08:33:51;;;;;;;10.35;1.60;;;;;;;35.71;17.06;99246.39;1667613;84;20913;-72
2022/07/16 08:36:17;;;;;;;3.22;0.82;;;;;;;37.35;15.79;99234.75;1667579;84;21457;-72
2022/07/16 08:38:44;;;;;;;2.33;0.90;;;;;;;38.74;14.60;99240.29;1667764;84;21064;-74
2022/07/16 08:41:11;;;;;;;9.75;1.05;;;;;;;40.00;13.56;99230.17;1667740;84;20911;-72
2022/07/16 08:43:37;;;;;;;1.60;0.78;;;;;;;40.64;12.69;99232.09;1667758;84;21154;-72
2022/07/16 08:46:04;;;;;;;4.58;4.17;;;;;;;40.35;12.17;99232.80;1667647;84;22445;-74
2022/07/16 08:48:32;;;;;;;3.05;1.17;;;;;;;40.38;12.49;99227.06;1667704;84;20879;-71
2022/07/16 08:50:59;;;;;;;1.32;0.50;;;;;;;41.29;11.30;99224.83;1668221;84;20997;-74
2022/07/16 08:53:25;;;;;;;2.87;0.60;;;;;;;42.03;10.53;99215.88;1670234;84;20927;-72
2022/07/16 08:55:52;;;;;;;2.22;1.30;;;;;;;42.37;10.20;99221.59;1670759;84;21860;-72
2022/07/16 08:58:20;;;;;;;2.20;0.80;;;;;;;42.73;10.44;99220.48;1670739;84;20971;-71
2022/07/16 09:00:46;;;;;;;3.67;0.70;;;;;;;43.22;10.21;99215.16;1670616;84;21571;-75
2022/07/16 09:03:13;;;;;;;1.15;0.60;;;;;;;43.63;9.74;99222.71;1670788;84;21068;-76
2022/07/16 09:05:44;;;;;;;2.47;0.60;;;;;;;42.93;10.12;99216.22;1670932;84;20911;-74
2022/07/16 09:08:11;;;;;;;2.58;0.70;;;;;;;41.33;11.14;99219.33;1670893;84;22039;-74
2022/07/16 09:10:39;;;;;;;1.42;0.57;;;;;;;40.68;12.00;99221.78;1670699;84;21011;-72
2022/07/16 09:13:06;;;;;;;2.22;0.53;;;;;;;40.74;11.96;99220.88;1669379;85;21008;-71
2022/07/16 09:15:38;;;;;;;1.65;0.60;;;;;;;40.67;11.83;99216.60;1623842;85;21033;-74
2022/07/16 09:18:23;;;;;;;0.90;0.60;;;;;;;40.08;12.21;99219.99;1670762;84;20969;-75
2022/07/16 09:20:57;;;;;;;2.62;0.78;;;;;;;40.33;12.42;99217.63;1656652;84;39097;-73
2022/07/16 09:23:34;;;;;;;1.47;0.60;;;;;;;41.08;12.30;99220.38;1670484;84;20965;-75
2022/07/16 09:26:10;;;;;;;0.50;0.50;;;;;;;42.22;11.60;99208.70;1670416;84;21002;-73
2022/07/16 09:28:49;;;;;;;1.20;0.50;;;;;;;42.67;11.20;99223.43;1670886;84;21036;-72
2022/07/16 09:31:39;;;;;;;0.85;0.50;;;;;;;42.83;11.12;99215.55;1665065;84;21066;-72
2022/07/16 09:34:10;;;;;;;3.75;0.72;;;;;;;42.40;11.15;99220.02;1670675;84;21270;-72
2022/07/16 09:36:39;;;;;;;2.15;0.70;;;;;;;41.67;11.87;99206.92;1670594;84;22020;-76
2022/07/16 09:39:07;;;;;;;2.00;1.27;;;;;;;40.46;12.34;99218.45;1670808;84;20946;-74
2022/07/16 09:41:44;;;;;;;1.77;0.70;;;;;;;38.81;13.44;99218.20;1670611;84;20973;-72
2022/07/16 09:44:23;;;;;;;2.08;0.60;;;;;;;37.64;14.46;99218.58;1665064;84;20926;-73
2022/07/16 09:47:08;;;;;;;1.22;0.70;;;;;;;36.64;14.75;99225.66;1670709;84;21231;-73
2022/07/16 09:49:38;;;;;;;1.30;0.80;;;;;;;35.58;15.47;99219.84;1674555;84;21515;-72
2022/07/16 09:52:07;;;;;;;2.52;0.80;;;;;;;34.55;16.09;99220.57;1670443;84;21087;-75
2022/07/16 09:54:36;;;;;;;1.35;0.55;;;;;;;33.60;17.45;99224.83;1648157;85;21023;-74
2022/07/16 09:57:18;;;;;;;9.40;1.02;;;;;;;32.85;18.27;99222.75;1646521;85;21005;-73
2022/07/16 09:59:46;;;;;;;4.42;0.85;;;;;;;32.33;18.75;99226.49;1647505;85;21605;-73
2022/07/16 10:02:13;;;;;;;3.22;0.70;;;;;;;31.93;19.50;99223.48;1652763;85;21083;-77
2022/07/16 10:04:40;;;;;;;1.07;0.60;;;;;;;31.63;20.11;99220.95;1610835;87;21028;-75
2022/07/16 10:07:07;;;;;;;1.22;0.60;;;;;;;31.29;19.83;99222.87;1600574;88;20930;-74
2022/07/16 10:09:34;;;;;;;2.90;0.90;;;;;;;31.05;19.85;99223.75;1618528;87;20972;-76
2022/07/16 10:12:06;;;;;;;2.67;0.62;;;;;;;30.78;20.33;99223.78;1619859;87;21579;-72
2022/07/16 10:14:36;;;;;;;1.77;0.50;;;;;;;30.56;20.62;99219.84;1595543;87;20976;-72
2022/07/16 10:17:22;;;;;;;1.05;0.60;;;;;;;30.28;20.54;99224.26;1614746;87;21007;-73
2022/07/16 10:20:00;;;;;;;;;;;;;;;29.94;20.80;99221.91;1615849;87;21712;-72
2022/07/16 10:22:31;;;;;;;1.32;0.70;;;;;;;29.56;21.29;99219.01;1630911;87;20108;-75
2022/07/16 10:24:58;;;;;;;1.05;0.60;;;;;;;29.35;21.56;99219.36;1634679;87;21898;-75
2022/07/16 10:27:35;;;;;;;3.60;0.70;;;;;;;29.25;21.51;99214.59;1620675;87;20927;-75
2022/07/16 10:30:14;;;;;;;2.77;0.70;;;;;;;29.12;21.69;99209.84;1612544;87;20893;-73
2022/07/16 10:33:06;;;;;;;1.10;0.60;;;;;;;28.98;22.16;99205.66;1612697;87;21051;-74
2022/07/16 10:35:43;;;;;;;1.52;0.75;;;;;;;29.01;22.02;99209.19;1615154;87;21509;-73
2022/07/16 10:38:22;;;;;;;1.37;0.63;;;;;;;28.95;21.58;99202.70;1613016;87;21177;-73
2022/07/16 10:41:15;;;;;;;1.30;0.70;;;;;;;28.88;22.04;99200.89;1614848;87;21382;-73
2022/07/16 10:43:43;;;;;;;1.12;0.70;;;;;;;28.84;22.27;99199.84;1611207;87;21589;-72
2022/07/16 10:46:11;;;;;;;1.87;0.90;;;;;;;28.82;22.51;99189.20;1616480;87;21040;-74
2022/07/16 10:48:43;;;;;;;1.57;0.70;;;;;;;28.75;22.50;99192.32;1625596;87;21008;-72
2022/07/16 10:51:21;;;;;;;1.90;0.80;;;;;;;28.63;22.65;99189.73;1615399;87;21110;-71
2022/07/16 10:54:04;;;;;;;0.88;0.70;;;;;;;28.47;22.88;99187.73;1651840;85;21623;-72
2022/07/16 10:56:37;;;;;;;0.88;0.70;;;;;;;28.22;23.08;99185.33;1654394;85;21489;-76
2022/07/16 10:59:04;;;;;;;2.45;0.65;;;;;;;27.95;23.39;99189.97;1651349;85;20964;-73
2022/07/16 11:01:32;;;;;;;2.35;0.70;;;;;;;27.74;23.93;99189.92;1654912;85;21596;-76
2022/07/16 11:03:58;;;;;;;1.35;0.70;;;;;;;27.59;24.13;99184.61;1655414;85;21260;-72
2022/07/16 11:06:25;;;;;;;0.90;0.53;;;;;;;27.41;24.36;99185.33;1655370;85;21076;-69
2022/07/16 11:08:53;;;;;;;1.02;0.68;;;;;;;27.27;24.46;99191.17;1660268;85;20991;-66
2022/07/16 11:11:20;;;;;;;1.42;0.60;;;;;;;27.24;24.23;99197.20;1650384;85;21443;-68
2022/07/16 11:13:51;;;;;;;2.72;0.80;;;;;;;27.20;24.12;99190.12;1655363;85;21019;-67
2022/07/16 11:16:18;;;;;;;2.35;0.60;;;;;;;27.12;24.33;99188.00;1662635;85;21467;-69
2022/07/16 11:18:44;;;;;;;2.08;0.80;;;;;;;27.04;24.46;99190.55;1658643;85;20979;-68
2022/07/16 11:21:11;;;;;;;1.02;0.70;;;;;;;27.01;24.94;99193.83;1648703;85;20920;-69
2022/07/16 11:23:56;;;;;;;1.27;0.88;;;;;;;27.01;24.79;99193.83;1660408;85;20954;-68
2022/07/16 11:26:23;;;;;;;3.58;0.98;;;;;;;26.94;24.71;99199.05;1655050;85;22423;-66
2022/07/16 11:29:00;;;;;;;2.67;0.80;;;;;;;26.96;25.12;99199.58;1654262;85;21239;-68
2022/07/16 11:31:33;;;;;;;0.82;0.80;;;;;;;26.97;25.61;99207.22;1653564;85;20978;-70
2022/07/16 11:34:05;;;;;;;2.77;1.12;;;;;;;27.04;25.81;99207.70;1654818;85;20948;-69
2022/07/16 11:36:38;;;;;;;2.37;0.88;;;;;;;27.15;25.37;99207.09;1652366;85;21058;-74
2022/07/16 11:39:13;;;;;;;1.85;0.88;;;;;;;27.29;25.46;99203.98;1653396;85;20961;-71
2022/07/16 11:41:43;;;;;;;3.40;0.80;;;;;;;27.38;25.62;99197.62;1645834;85;21239;-69
2022/07/16 11:44:15;;;;;;;2.60;0.82;;;;;;;27.35;25.24;99196.81;1649255;85;20877;-70
2022/07/16 11:46:58;;;;;;;2.35;0.78;;;;;;;27.16;25.33;99198.63;1651178;85;20901;-73
2022/07/16 11:49:43;;;;;;;1.60;0.82;;;;;;;27.00;25.48;99199.02;1654964;85;20968;-75